createdAt,value
2018-09-05T00:01:58.438Z,101128.51
2018-09-05T00:04:26.942Z,101121.45
2018-09-05T00:06:55.434Z,101125.47
2018-09-05T00:09:23.941Z,101122.42
2018-09-05T00:11:52.419Z,101120.66
2018-09-05T00:14:20.950Z,101118.00
2018-09-05T00:16:49.441Z,101111.31
2018-09-05T00:19:17.913Z,101118.22
2018-09-05T00:21:46.777Z,101110.66
2018-09-05T00:24:15.226Z,101120.39
2018-09-05T00:26:43.749Z,101117.56
2018-09-05T00:29:12.289Z,101118.91
2018-09-05T00:31:40.744Z,101109.55
2018-09-05T00:34:09.192Z,101113.84
2018-09-05T00:36:37.708Z,101119.95
2018-09-05T00:39:07.830Z,101117.05
2018-09-05T00:41:36.373Z,101117.64
2018-09-05T00:44:04.910Z,101114.88
2018-09-05T00:46:33.461Z,101114.45
2018-09-05T00:49:02.272Z,101108.42
2018-09-05T00:51:30.745Z,101112.09
2018-09-05T00:53:59.357Z,101113.05
2018-09-05T00:56:27.851Z,101111.05
2018-09-05T00:58:56.362Z,101108.25
2018-09-05T01:01:24.838Z,101115.34
2018-09-05T01:03:53.358Z,101116.91
2018-09-05T01:06:21.919Z,101120.98
2018-09-05T01:08:50.381Z,101118.25
2018-09-05T01:11:18.854Z,101121.72
2018-09-05T01:13:47.337Z,101117.11
2018-09-05T01:16:15.791Z,101121.28
2018-09-05T01:18:44.329Z,101118.38
2018-09-05T01:21:12.789Z,101119.41
2018-09-05T01:23:41.370Z,101117.31
2018-09-05T01:26:09.834Z,101123.38
2018-09-05T01:28:38.339Z,101118.00
2018-09-05T01:31:06.846Z,101115.65
2018-09-05T01:33:35.896Z,101115.94
2018-09-05T01:36:11.402Z,101110.88
2018-09-05T01:38:39.993Z,101110.75
2018-09-05T01:41:08.501Z,101111.89
2018-09-05T01:43:37.097Z,101114.59
2018-09-05T01:46:05.665Z,101115.45
2018-09-05T01:48:34.176Z,101115.23
2018-09-05T01:51:02.712Z,101108.21
2018-09-05T01:53:31.190Z,101112.22
2018-09-05T01:55:59.779Z,101111.39
2018-09-05T01:58:28.393Z,101105.82
2018-09-05T02:00:57.191Z,101106.39
2018-09-05T02:03:25.717Z,101108.39
2018-09-05T02:05:54.204Z,101106.06
2018-09-05T02:08:22.701Z,101100.83
2018-09-05T02:10:51.341Z,101105.34
2018-09-05T02:13:19.837Z,101103.02
2018-09-05T02:15:48.477Z,101101.48
2018-09-05T02:18:16.992Z,101110.61
2018-09-05T02:20:45.461Z,101103.80
2018-09-05T02:23:13.969Z,101110.34
2018-09-05T02:25:42.461Z,101103.22
2018-09-05T02:28:10.932Z,101111.22
2018-09-05T02:30:39.550Z,101109.91
2018-09-05T02:33:08.036Z,101107.78
2018-09-05T02:35:36.512Z,101105.84
2018-09-05T02:38:05.448Z,101105.52
2018-09-05T02:40:34.015Z,101106.78
2018-09-05T02:43:02.387Z,101106.80
2018-09-05T02:45:30.869Z,101109.36
2018-09-05T02:47:59.374Z,101110.07
2018-09-05T02:50:27.913Z,101113.03
2018-09-05T02:52:56.378Z,101116.64
2018-09-05T02:55:30.310Z,101109.51
2018-09-05T02:57:58.784Z,101106.73
2018-09-05T03:00:27.282Z,101110.68
2018-09-05T03:02:56.010Z,101109.71
2018-09-05T03:05:24.481Z,101114.43
2018-09-05T03:07:52.980Z,101106.76
2018-09-05T03:10:21.570Z,101108.98
2018-09-05T03:12:50.093Z,101105.31
2018-09-05T03:15:18.549Z,101108.74
2018-09-05T03:17:47.047Z,101101.89
2018-09-05T03:20:15.570Z,101100.49
2018-09-05T03:22:44.017Z,101102.40
2018-09-05T03:25:12.641Z,101094.01
2018-09-05T03:27:41.552Z,101100.78
2018-09-05T03:30:10.030Z,101097.35
2018-09-05T03:32:38.583Z,101100.12
2018-09-05T03:35:07.242Z,101100.73
2018-09-05T03:37:35.785Z,101101.14
2018-09-05T03:40:04.398Z,101102.76
2018-09-05T03:42:32.831Z,101103.19
2018-09-05T03:45:01.335Z,101102.79
2018-09-05T03:47:30.110Z,101101.89
2018-09-05T03:49:58.670Z,101105.13
2018-09-05T03:52:27.138Z,101107.40
2018-09-05T03:54:55.630Z,101103.41
2018-09-05T03:57:24.141Z,101107.72
2018-09-05T03:59:52.896Z,101108.15
2018-09-05T04:02:21.433Z,101112.94
2018-09-05T04:04:50.225Z,101110.59
2018-09-05T04:07:18.677Z,101113.80
2018-09-05T04:09:47.148Z,101116.77
2018-09-05T04:12:15.807Z,101117.81
2018-09-05T04:14:44.301Z,101119.15
2018-09-05T04:17:12.787Z,101109.21
2018-09-05T04:19:41.290Z,101108.28
2018-09-05T04:22:09.861Z,101109.31
2018-09-05T04:24:38.233Z,101107.95
2018-09-05T04:27:06.971Z,101104.13
2018-09-05T04:29:35.532Z,101105.23
2018-09-05T04:32:04.224Z,101100.03
2018-09-05T04:34:32.669Z,101103.29
2018-09-05T04:37:01.256Z,101102.58
2018-09-05T04:39:29.744Z,101095.19
2018-09-05T04:41:58.327Z,101106.08
2018-09-05T04:44:26.788Z,101099.81
2018-09-05T04:46:55.377Z,101101.03
2018-09-05T04:49:23.937Z,101101.34
2018-09-05T04:51:52.409Z,101097.66
2018-09-05T04:54:20.977Z,101102.61
2018-09-05T04:56:49.455Z,101105.67
2018-09-05T04:59:17.985Z,101104.63
2018-09-05T05:01:46.501Z,101109.67
2018-09-05T05:04:14.975Z,101108.00
2018-09-05T05:06:43.509Z,101110.77
2018-09-05T05:09:12.718Z,101118.86
2018-09-05T05:11:41.921Z,101114.05
2018-09-05T05:14:10.979Z,101119.45
2018-09-05T05:16:39.483Z,101120.58
2018-09-05T05:19:07.956Z,101119.88
2018-09-05T05:21:36.445Z,101118.67
2018-09-05T05:24:04.889Z,101123.14
2018-09-05T05:26:33.392Z,101120.69
2018-09-05T05:29:01.928Z,101119.35
2018-09-05T05:31:30.428Z,101114.34
2018-09-05T05:33:58.954Z,101114.11
2018-09-05T05:36:27.651Z,101122.62
2018-09-05T05:38:56.153Z,101121.98
2018-09-05T05:41:24.685Z,101121.26
2018-09-05T05:43:53.235Z,101132.90
2018-09-05T05:46:21.821Z,101132.36
2018-09-05T05:48:50.302Z,101137.70
2018-09-05T05:51:18.771Z,101148.72
2018-09-05T05:53:47.293Z,101147.17
2018-09-05T05:56:15.738Z,101149.70
2018-09-05T05:58:44.201Z,101150.17
2018-09-05T06:01:12.753Z,101155.90
2018-09-05T06:03:41.227Z,101153.91
2018-09-05T06:06:09.764Z,101156.64
2018-09-05T06:08:38.258Z,101158.25
2018-09-05T06:11:06.929Z,101161.48
2018-09-05T06:13:35.770Z,101160.27
2018-09-05T06:16:04.249Z,101164.22
2018-09-05T06:18:32.722Z,101168.66
2018-09-05T06:21:01.330Z,101176.49
2018-09-05T06:23:30.138Z,101178.35
2018-09-05T06:25:58.617Z,101173.31
2018-09-05T06:28:27.133Z,101175.48
2018-09-05T06:30:56.092Z,101170.14
2018-09-05T06:33:24.487Z,101173.00
2018-09-05T06:35:52.987Z,101171.92
2018-09-05T06:38:21.509Z,101172.63
2018-09-05T06:40:50.165Z,101178.95
2018-09-05T06:43:18.636Z,101183.85
2018-09-05T06:45:47.159Z,101175.67
2018-09-05T06:48:15.669Z,101176.83
2018-09-05T06:50:44.168Z,101163.75
2018-09-05T06:53:12.669Z,101176.83
2018-09-05T06:55:41.138Z,101171.85
2018-09-05T06:58:09.829Z,101170.96
2018-09-05T07:00:38.357Z,101177.94
2018-09-05T07:03:07.136Z,101178.03
2018-09-05T07:05:35.704Z,101177.34
2018-09-05T07:08:04.221Z,101172.19
2018-09-05T07:10:32.714Z,101168.91
2018-09-05T07:13:01.238Z,101174.42
2018-09-05T07:15:29.732Z,101174.70
2018-09-05T07:17:58.266Z,101180.23
2018-09-05T07:20:26.758Z,101172.70
2018-09-05T07:22:55.265Z,101170.16
2018-09-05T07:25:23.795Z,101175.90
2018-09-05T07:27:52.293Z,101179.30
2018-09-05T07:30:20.899Z,101170.34
2018-09-05T07:32:49.328Z,101179.23
2018-09-05T07:35:18.156Z,101179.85
2018-09-05T07:37:46.680Z,101183.38
2018-09-05T07:40:15.303Z,101177.06
2018-09-05T07:42:43.833Z,101172.97
2018-09-05T07:45:12.381Z,101173.30
2018-09-05T07:47:40.907Z,101170.05
2018-09-05T07:50:09.409Z,101169.81
2018-09-05T07:52:37.977Z,101174.48
2018-09-05T07:55:06.799Z,101170.89
2018-09-05T07:57:35.245Z,101169.84
2018-09-05T08:00:03.748Z,101168.00
2018-09-05T08:02:32.282Z,101166.00
2018-09-05T08:05:00.885Z,101173.69
2018-09-05T08:08:01.342Z,101173.27
2018-09-05T08:10:29.857Z,101180.00
2018-09-05T08:12:58.330Z,101180.00
2018-09-05T08:15:26.970Z,101189.07
2018-09-05T08:17:55.528Z,101177.38
2018-09-05T08:20:24.046Z,101180.22
2018-09-05T08:22:52.574Z,101176.76
2018-09-05T08:25:21.047Z,101184.92
2018-09-05T08:27:49.597Z,101176.52
2018-09-05T08:30:18.098Z,101182.86
2018-09-05T08:32:46.576Z,101177.38
2018-09-05T08:35:15.270Z,101173.39
2018-09-05T08:37:43.790Z,101180.00
2018-09-05T08:40:12.159Z,101184.08
2018-09-05T08:42:41.142Z,101188.42
2018-09-05T08:45:09.954Z,101187.69
2018-09-05T08:47:38.373Z,101191.09
2018-09-05T08:50:07.029Z,101186.52
2018-09-05T08:52:35.517Z,101187.72
2018-09-05T08:55:04.153Z,101190.94
2018-09-05T08:57:32.732Z,101185.23
2018-09-05T09:00:01.266Z,101196.59
2018-09-05T09:02:29.798Z,101189.35
2018-09-05T09:04:58.325Z,101191.69
2018-09-05T09:07:26.811Z,101192.30
2018-09-05T09:09:55.703Z,101187.92
2018-09-05T09:12:24.254Z,101186.96
2018-09-05T09:14:52.897Z,101182.54
2018-09-05T09:17:21.414Z,101184.64
2018-09-05T09:19:49.905Z,101175.78
2018-09-05T09:22:18.781Z,101175.83
2018-09-05T09:24:47.411Z,101176.77
2018-09-05T09:27:15.957Z,101172.52
2018-09-05T09:29:44.877Z,101174.44
2018-09-05T09:34:40.777Z,101169.31
2018-09-05T09:37:09.261Z,101166.48
2018-09-05T09:39:37.738Z,101164.45
2018-09-05T09:42:06.690Z,101160.84
2018-09-05T09:44:35.642Z,101158.98
2018-09-05T09:47:04.141Z,101158.98
2018-09-05T09:49:32.720Z,101159.02
2018-09-05T09:52:06.524Z,101150.11
2018-09-05T09:54:35.006Z,101154.45
2018-09-05T09:57:03.581Z,101153.29
2018-09-05T09:59:32.080Z,101150.23
2018-09-05T10:02:05.869Z,101143.98
2018-09-05T10:04:39.752Z,101143.62
2018-09-05T10:07:13.588Z,101132.63
2018-09-05T10:09:47.523Z,101138.37
2018-09-05T10:12:21.248Z,101137.33
2018-09-05T10:14:58.747Z,101132.48
2018-09-05T10:17:32.827Z,101137.83
2018-09-05T10:20:01.798Z,101133.59
2018-09-05T10:22:30.833Z,101126.08
2018-09-05T10:24:59.425Z,101129.38
2018-09-05T10:27:28.450Z,101129.59
2018-09-05T10:29:57.252Z,101115.92
2018-09-05T10:32:26.097Z,101122.14
2018-09-05T10:34:55.788Z,101123.80
2018-09-05T10:37:24.281Z,101130.07
2018-09-05T10:39:52.860Z,101126.05
2018-09-05T10:42:21.437Z,101119.44
2018-09-05T10:44:50.005Z,101125.97
2018-09-05T10:47:18.484Z,101124.64
2018-09-05T10:49:47.015Z,101125.75
2018-09-05T10:52:15.469Z,101120.12
2018-09-05T10:54:43.989Z,101113.94
2018-09-05T10:57:12.458Z,101113.38
2018-09-05T10:59:40.926Z,101112.62
2018-09-05T11:02:09.469Z,101111.25
2018-09-05T11:04:37.952Z,101115.32
2018-09-05T11:07:06.541Z,101108.54
2018-09-05T11:09:35.001Z,101108.56
2018-09-05T11:12:03.460Z,101111.56
2018-09-05T11:14:31.941Z,101104.28
2018-09-05T11:17:00.429Z,101108.88
2018-09-05T11:19:28.953Z,101106.17
2018-09-05T11:21:57.424Z,101100.22
2018-09-05T11:24:25.953Z,101102.38
2018-09-05T11:26:54.422Z,101098.84
2018-09-05T11:29:22.983Z,101093.98
2018-09-05T11:31:52.030Z,101103.20
2018-09-05T11:34:20.555Z,101101.86
2018-09-05T11:36:49.099Z,101092.09
2018-09-05T11:39:17.566Z,101092.64
2018-09-05T11:41:46.054Z,101094.74
2018-09-05T11:44:14.740Z,101093.41
2018-09-05T11:46:43.276Z,101092.05
2018-09-05T11:49:11.813Z,101091.52
2018-09-05T11:51:40.450Z,101087.19
2018-09-05T11:54:09.784Z,101091.53
2018-09-05T11:56:38.399Z,101088.82
2018-09-05T11:59:07.084Z,101088.80
2018-09-05T12:01:35.626Z,101080.68
2018-09-05T12:04:04.133Z,101085.55
2018-09-05T12:06:32.653Z,101082.00
2018-09-05T12:09:01.158Z,101085.23
2018-09-05T12:11:29.629Z,101080.08
2018-09-05T12:13:58.111Z,101074.59
2018-09-05T12:16:26.596Z,101074.59
2018-09-05T12:18:55.143Z,101071.65
2018-09-05T12:21:23.817Z,101068.59
2018-09-05T12:23:52.324Z,101066.48
2018-09-05T12:26:21.377Z,101066.23
2018-09-05T12:28:49.916Z,101062.91
2018-09-05T12:31:18.397Z,101057.60
2018-09-05T12:33:46.949Z,101056.22
2018-09-05T12:36:15.464Z,101043.73
2018-09-05T12:38:44.030Z,101049.40
2018-09-05T12:41:12.556Z,101052.33
2018-09-05T12:43:41.033Z,101050.98
2018-09-05T12:46:09.585Z,101052.24
2018-09-05T12:48:38.069Z,101041.97
2018-09-05T12:51:06.677Z,101043.29
2018-09-05T12:53:35.209Z,101042.50
2018-09-05T12:56:03.697Z,101033.52
2018-09-05T12:58:32.207Z,101034.88
2018-09-05T13:01:00.802Z,101041.50
2018-09-05T13:03:29.374Z,101037.15
2018-09-05T13:05:57.894Z,101030.91
2018-09-05T13:08:26.588Z,101032.70
2018-09-05T13:10:55.065Z,101037.84
2018-09-05T13:13:23.737Z,101030.48
2018-09-05T13:15:52.316Z,101039.03
2018-09-05T13:18:22.181Z,101038.13
2018-09-05T13:20:50.747Z,101038.13
2018-09-05T13:23:19.297Z,101032.98
2018-09-05T13:25:47.801Z,101029.66
2018-09-05T13:28:16.274Z,101022.59
2018-09-05T13:30:44.756Z,101023.95
2018-09-05T13:33:13.277Z,101030.44
2018-09-05T13:35:41.877Z,101022.06
2018-09-05T13:38:10.566Z,101023.21
2018-09-05T13:40:39.304Z,101015.12
2018-09-05T13:43:07.973Z,101021.58
2018-09-05T13:45:36.472Z,101014.99
2018-09-05T13:48:04.973Z,101019.30
2018-09-05T13:50:33.585Z,101017.19
2018-09-05T13:53:02.053Z,101015.45
2018-09-05T13:55:30.568Z,101006.89
2018-09-05T13:57:59.160Z,101006.57
2018-09-05T14:00:27.688Z,101008.54
2018-09-05T14:02:56.318Z,101004.19
2018-09-05T14:05:24.803Z,101000.91
2018-09-05T14:07:53.274Z,100996.05
2018-09-05T14:10:21.768Z,100991.75
2018-09-05T14:12:50.248Z,100993.44
2018-09-05T14:15:18.790Z,100985.74
2018-09-05T14:17:47.336Z,100983.23
2018-09-05T14:20:15.888Z,100978.61
2018-09-05T14:22:44.427Z,100974.61
2018-09-05T14:25:13.105Z,100988.35
2018-09-05T14:27:41.625Z,100985.28
2018-09-05T14:30:10.117Z,100977.20
2018-09-05T14:32:38.593Z,100981.18
2018-09-05T14:35:07.166Z,100977.11
2018-09-05T14:37:35.697Z,100977.97
2018-09-05T14:40:04.293Z,100968.78
2018-09-05T14:42:32.826Z,100974.11
2018-09-05T14:45:01.355Z,100972.80
2018-09-05T14:47:29.865Z,100976.00
2018-09-05T14:49:58.581Z,100970.50
2018-09-05T14:52:27.084Z,100968.41
2018-09-05T14:54:55.608Z,100964.15
2018-09-05T14:57:24.151Z,100969.05
2018-09-05T14:59:52.776Z,100958.73
2018-09-05T15:02:21.546Z,100966.91
2018-09-05T15:04:50.183Z,100961.44
2018-09-05T15:07:19.110Z,100963.88
2018-09-05T15:09:47.774Z,100956.80
2018-09-05T15:12:16.256Z,100963.95
2018-09-05T15:14:44.791Z,100953.80
2018-09-05T15:17:13.481Z,100956.11
2018-09-05T15:19:42.146Z,100959.02
2018-09-05T15:22:10.766Z,100952.77
2018-09-05T15:24:39.285Z,100952.78
2018-09-05T15:27:07.850Z,100946.38
2018-09-05T15:29:36.389Z,100954.27
2018-09-05T15:32:04.930Z,100949.14
2018-09-05T15:34:33.389Z,100937.51
2018-09-05T15:37:01.825Z,100941.04
2018-09-05T15:39:30.504Z,100935.37
2018-09-05T15:41:59.116Z,100933.83
2018-09-05T15:44:33.118Z,100931.63
2018-09-05T15:47:01.591Z,100930.88
2018-09-05T15:49:30.082Z,100938.25
2018-09-05T15:51:58.626Z,100933.15
2018-09-05T15:54:27.616Z,100928.32
2018-09-05T15:56:56.149Z,100928.91
2018-09-05T15:59:24.837Z,100928.32
2018-09-05T16:01:54.546Z,100924.93
2018-09-05T16:04:23.165Z,100920.71
2018-09-05T16:06:51.722Z,100918.43
2018-09-05T16:09:20.234Z,100928.72
2018-09-05T16:11:48.784Z,100920.10
2018-09-05T16:14:17.343Z,100917.50
2018-09-05T16:16:45.857Z,100917.73
2018-09-05T16:19:14.344Z,100910.68
2018-09-05T16:21:42.930Z,100913.72
2018-09-05T16:24:11.376Z,100919.77
2018-09-05T16:26:39.881Z,100921.50
2018-09-05T16:29:08.493Z,100911.89
2018-09-05T16:31:36.982Z,100909.22
2018-09-05T16:34:05.512Z,100912.56
2018-09-05T16:36:34.050Z,100909.27
2018-09-05T16:39:02.650Z,100906.12
2018-09-05T16:41:31.138Z,100906.12
2018-09-05T16:43:59.691Z,100906.45
2018-09-05T16:46:28.202Z,100902.94
2018-09-05T16:48:56.683Z,100908.93
2018-09-05T16:51:25.210Z,100905.97
2018-09-05T16:53:53.682Z,100904.39
2018-09-05T16:56:22.290Z,100902.73
2018-09-05T16:58:50.869Z,100896.83
2018-09-05T17:01:19.390Z,100902.26
2018-09-05T17:03:47.923Z,100903.10
2018-09-05T17:06:16.463Z,100907.17
2018-09-05T17:08:45.002Z,100898.54
2018-09-05T17:11:13.701Z,100906.92
2018-09-05T17:13:42.073Z,100894.22
2018-09-05T17:16:10.573Z,100902.64
2018-09-05T17:18:39.079Z,100896.16
2018-09-05T17:21:07.864Z,100895.36
2018-09-05T17:23:36.381Z,100895.07
2018-09-05T17:26:04.917Z,100901.05
2018-09-05T17:28:33.601Z,100898.89
2018-09-05T17:31:02.235Z,100900.23
2018-09-05T17:33:30.762Z,100906.72
2018-09-05T17:35:59.267Z,100900.22
2018-09-05T17:38:27.830Z,100900.23
2018-09-05T17:40:56.464Z,100906.97
2018-09-05T17:43:24.917Z,100905.08
2018-09-05T17:45:53.433Z,100910.19
2018-09-05T17:48:22.029Z,100905.34
2018-09-05T17:50:50.578Z,100905.86
2018-09-05T17:53:19.178Z,100899.38
2018-09-05T17:55:48.115Z,100901.76
2018-09-05T17:58:16.729Z,100906.64
2018-09-05T18:00:45.257Z,100900.38
2018-09-05T18:03:13.782Z,100904.36
2018-09-05T18:05:42.381Z,100906.48
2018-09-05T18:08:10.933Z,100900.03
2018-09-05T18:10:39.497Z,100897.59
2018-09-05T18:13:08.105Z,100899.45
2018-09-05T18:15:36.643Z,100901.89
2018-09-05T18:18:05.350Z,100904.31
2018-09-05T18:20:34.186Z,100901.55
2018-09-05T18:23:02.715Z,100901.58
2018-09-05T18:25:31.190Z,100907.72
2018-09-05T18:27:59.789Z,100905.03
2018-09-05T18:30:28.326Z,100913.03
2018-09-05T18:32:56.812Z,100908.48
2018-09-05T18:35:25.339Z,100914.45
2018-09-05T18:37:53.852Z,100911.39
2018-09-05T18:41:51.497Z,100910.59
2018-09-05T18:44:19.994Z,100910.25
2018-09-05T18:46:48.482Z,100918.56
2018-09-05T18:49:17.125Z,100907.73
2018-09-05T18:51:45.705Z,100910.19
2018-09-05T18:54:14.173Z,100910.48
2018-09-05T18:56:42.663Z,100911.02
2018-09-05T18:59:11.213Z,100912.85
2018-09-05T19:01:39.964Z,100914.47
2018-09-05T19:04:08.828Z,100903.95
2018-09-05T19:06:37.324Z,100908.72
2018-09-05T19:09:08.545Z,100910.74
2018-09-05T19:11:37.898Z,100906.97
2018-09-05T19:14:06.393Z,100906.70
2018-09-05T19:16:34.866Z,100906.93
2018-09-05T19:19:03.425Z,100913.58
2018-09-05T19:21:32.119Z,100912.11
2018-09-05T19:24:00.608Z,100906.98
2018-09-05T19:26:29.161Z,100916.92
2018-09-05T19:28:57.677Z,100913.34
2018-09-05T19:31:26.206Z,100912.11
2018-09-05T19:33:54.797Z,100912.88
2018-09-05T19:36:23.298Z,100913.14
2018-09-05T19:38:52.163Z,100912.36
2018-09-05T19:41:21.001Z,100913.97
2018-09-05T19:43:49.561Z,100918.77
2018-09-05T19:46:18.069Z,100911.19
2018-09-05T19:48:46.967Z,100910.81
2018-09-05T19:51:15.562Z,100910.81
2018-09-05T19:53:44.138Z,100900.26
2018-09-05T19:56:12.733Z,100902.59
2018-09-05T19:58:41.672Z,100898.09
2018-09-05T20:01:10.261Z,100903.06
2018-09-05T20:03:38.760Z,100900.62
2018-09-05T20:06:07.653Z,100896.78
2018-09-05T20:08:36.247Z,100900.72
2018-09-05T20:11:04.708Z,100898.20
2018-09-05T20:13:33.657Z,100899.54
2018-09-05T20:16:02.196Z,100906.97
2018-09-05T20:18:30.793Z,100897.44
2018-09-05T20:20:59.311Z,100898.72
2018-09-05T20:23:28.218Z,100903.75
2018-09-05T20:25:56.646Z,100905.05
2018-09-05T20:28:25.124Z,100906.57
2018-09-05T20:30:53.894Z,100905.82
2018-09-05T20:33:22.611Z,100908.42
2018-09-05T20:35:51.077Z,100903.37
2018-09-05T20:38:19.846Z,100908.42
2018-09-05T20:40:48.308Z,100904.31
2018-09-05T20:43:16.754Z,100904.27
2018-09-05T20:45:45.212Z,100900.49
2018-09-05T20:48:13.719Z,100895.55
2018-09-05T20:50:42.262Z,100894.98
2018-09-05T20:53:10.792Z,100895.25
2018-09-05T20:55:39.314Z,100895.05
2018-09-05T20:58:07.881Z,100895.50
2018-09-05T21:00:36.439Z,100893.81
2018-09-05T21:03:04.937Z,100896.42
2018-09-05T21:05:33.789Z,100886.20
2018-09-05T21:08:02.320Z,100892.07
2018-09-05T21:10:30.862Z,100898.20
2018-09-05T21:12:59.454Z,100895.72
2018-09-05T21:15:28.004Z,100895.94
2018-09-05T21:17:56.542Z,100899.49
2018-09-05T21:20:24.984Z,100895.94
2018-09-05T21:22:53.474Z,100892.13
2018-09-05T21:25:22.004Z,100893.59
2018-09-05T21:27:50.549Z,100894.27
2018-09-05T21:30:19.190Z,100890.23
2018-09-05T21:32:47.677Z,100889.06
2018-09-05T21:35:16.188Z,100892.19
2018-09-05T21:37:44.708Z,100884.28
2018-09-05T21:40:13.245Z,100882.89
2018-09-05T21:42:41.881Z,100879.19
2018-09-05T21:45:10.368Z,100880.94
2018-09-05T21:47:38.840Z,100876.86
2018-09-05T21:50:07.931Z,100871.14
2018-09-05T21:52:36.452Z,100872.92
2018-09-05T21:55:04.943Z,100878.72
2018-09-05T21:57:33.460Z,100878.38
2018-09-05T22:00:01.957Z,100872.81
2018-09-05T22:02:30.442Z,100871.14
2018-09-05T22:04:59.008Z,100867.06
2018-09-05T22:07:27.623Z,100873.66
2018-09-05T22:09:56.149Z,100876.31
2018-09-05T22:12:24.745Z,100877.66
2018-09-05T22:14:53.213Z,100872.53
2018-09-05T22:17:21.754Z,100872.74
2018-09-05T22:19:50.222Z,100870.84
2018-09-05T22:22:19.088Z,100868.80
2018-09-05T22:24:47.581Z,100868.27
2018-09-05T22:27:16.056Z,100867.92
2018-09-05T22:29:44.578Z,100864.63
2018-09-05T22:32:13.231Z,100867.41
2018-09-05T22:34:41.718Z,100853.67
2018-09-05T22:37:10.237Z,100862.61
2018-09-05T22:39:38.742Z,100860.17
2018-09-05T22:42:07.270Z,100859.61
2018-09-05T22:44:46.893Z,100857.69
2018-09-05T22:47:26.845Z,100857.69
2018-09-05T22:51:32.891Z,100857.47
2018-09-05T22:54:22.112Z,100854.19
2018-09-05T22:59:10.153Z,100850.25
2018-09-05T23:01:51.871Z,100843.97
2018-09-05T23:04:31.301Z,100843.73
2018-09-05T23:08:21.205Z,100837.92
2018-09-05T23:11:01.091Z,100838.83
2018-09-05T23:13:40.954Z,100831.04
2018-09-05T23:16:20.735Z,100829.31
2018-09-05T23:19:37.893Z,100833.09
2018-09-05T23:22:06.466Z,100825.58
2018-09-05T23:24:34.962Z,100818.53
2018-09-05T23:27:03.526Z,100816.92
2018-09-05T23:29:32.056Z,100814.41
2018-09-05T23:32:00.876Z,100808.27
2018-09-05T23:34:29.454Z,100801.75
2018-09-05T23:36:57.928Z,100801.05
2018-09-05T23:39:26.430Z,100795.45
2018-09-05T23:41:55.010Z,100798.84
2018-09-05T23:44:23.538Z,100792.63
2018-09-05T23:46:52.059Z,100796.20
2018-09-05T23:49:20.598Z,100790.12
2018-09-05T23:51:49.110Z,100790.12
2018-09-05T23:54:17.671Z,100792.31
2018-09-05T23:56:46.215Z,100788.78
2018-09-05T23:59:14.727Z,100792.12
